Tierra Del Sol (445) Station Data

Red Flag Warning: Yes
Fire Weather Zone: 258
SDGE Region: Mountain Empire
Lat/Lon: 32.645/-116.347

Observations

Time Wind Speed/Gust Temp(F) RH Fuel Moist Fuel Temp(F) Dewpt(F) Tmax(F) Tmin(F) Accum Precip 10-min Precip SL Press(mb)
6/27 5:00pm 266 13 G 24 88° 9% - - 21° 92.6° 66.1° - - 866.0
6/27 4:50pm 268 13 G 25 88° 9% - - 21° 92.6° 66.1° - - 866.0
6/27 4:40pm 263 13 G 28 88° 8% - - 21° 92.6° 66.1° - - 866.0
6/27 4:30pm 265 13 G 24 89° 8% - - 21° 92.6° 66.1° - - 866.0
6/27 4:20pm 260 12 G 23 89° 9% - - 22° 92.6° 66.1° - - 866.0
6/27 4:10pm 271 13 G 25 89° 8% - - 21° 92.6° 66.1° - - 866.0
6/27 4:00pm 264 14 G 25 89° 8% - - 21° 92.6° 66.1° - - 866.0
6/27 3:50pm 264 13 G 23 90° 9% - - 23° 92.6° 66.1° - - 867.0
6/27 3:40pm 264 13 G 26 90° 8% - - 22° 92.6° 66.1° - - 867.0
6/27 3:30pm 260 15 G 27 90° 8% - - 22° 92.6° 66.1° - - 867.0
6/27 3:20pm 261 11 G 24 91° 8% - - 22° 92.6° 66.1° - - 867.0
6/27 3:10pm 254 13 G 24 91° 8% - - 22° 92.6° 66.1° - - 867.0
6/27 3:00pm 261 12 G 22 91° 8% - - 22° 92.6° 66.1° - - 867.0
6/27 2:50pm 272 13 G 25 91° 8% - - 21° 92.6° 66.1° - - 867.0
6/27 2:40pm 266 13 G 27 91° 8% - - 21° 92.6° 66.1° - - 867.0
6/27 2:30pm 270 11 G 23 91° 8% - - 21° 92.6° 66.1° - - 867.0
6/27 2:20pm 268 14 G 24 91° 8% - - 22° 92.6° 66.1° - - 867.0
6/27 2:10pm 267 12 G 26 92° 8% - - 23° 92.6° 66.1° - - 867.0
6/27 2:00pm 268 12 G 23 92° 8% - - 22° 92.6° 66.1° - - 867.0
6/27 1:50pm 273 12 G 25 92° 8% - - 21° 92.6° 66.1° - - 867.0
6/27 1:40pm 268 12 G 24 91° 7% - - 20° 91.9° 66.1° - - 866.0
6/27 1:30pm 265 13 G 23 91° 7% - - 18° 91.6° 66.1° - - 866.0
6/27 1:20pm 272 13 G 24 90° 7% - - 17° 91.2° 66.1° - - 866.0
6/27 1:10pm 264 13 G 26 90° 6% - - 16° 91.2° 66.1° - - 866.0
6/27 1:00pm 262 12 G 24 90° 7% - - 16° 91.2° 66.1° - - 866.0
6/27 12:50pm 259 13 G 22 90° 6% - - 16° 91.2° 66.1° - - 866.0
6/27 12:40pm 266 12 G 20 91° 7% - - 17° 91.2° 66.1° - - 866.0
6/27 12:30pm 258 11 G 23 91° 6% - - 16° 91.2° 66.1° - - 866.0
6/27 12:20pm 252 12 G 24 90° 7% - - 17° 90.5° 66.1° - - 866.0
6/27 12:10pm 256 12 G 22 90° 7% - - 17° 90.5° 66.1° - - 866.0
6/27 12:00pm 255 13 G 24 89° 7% - - 17° 90° 66.1° - - 866.0
6/27 11:50am 265 12 G 22 89° 7% - - 17° 89.9° 66.1° - - 866.0
6/27 11:40am 259 13 G 21 89° 7% - - 18° 89.4° 66.1° - - 866.0
6/27 11:30am 263 12 G 23 89° 7% - - 18° 89.3° 66.1° - - 866.0
6/27 11:20am 260 10 G 21 89° 8% - - 19° 89.3° 66.1° - - 866.0
6/27 11:10am 262 11 G 19 88° 8% - - 19° 88.3° 66.1° - - 866.0
6/27 11:00am 261 11 G 22 88° 8% - - 19° 88.1° 66.1° - - 866.0
6/27 10:50am 260 12 G 23 87° 8% - - 19° 87.8° 66.1° - - 866.0
6/27 10:40am 259 13 G 23 87° 8% - - 19° 87.8° 66.1° - - 865.0
6/27 10:30am 256 10 G 21 87° 8% - - 19° 87.8° 66.1° - - 865.0
6/27 10:20am 264 11 G 21 86° 8% - - 19° 87° 66.1° - - 865.0
6/27 10:10am 261 13 G 22 86° 8% - - 18° 86.8° 66.1° - - 865.0
6/27 10:00am 259 12 G 23 86° 8% - - 18° 86.8° 66.1° - - 865.0
6/27 9:50am 252 12 G 20 86° 8% - - 19° 86.5° 66.1° - - 865.0
6/27 9:40am 254 11 G 22 86° 9% - - 19° 86.4° 66.1° - - 865.0
6/27 9:30am 260 8 G 15 86° 9% - - 22° 86.4° 66.1° - - 865.0
6/27 9:20am 266 9 G 17 84° 10% - - 22° 85.4° 66.1° - - 865.0
6/27 9:10am 259 9 G 15 84° 11% - - 23° 84.1° 66.1° - - 865.0
6/27 9:00am 259 9 G 17 83° 11% - - 23° 83.7° 66.1° - - 865.0
6/27 8:50am 261 7 G 15 83° 12% - - 24° 83.1° 66.1° - - 865.0
6/27 8:40am 265 6 G 13 81° 12% - - 24° 81.6° 66.1° - - 865.0
6/27 8:30am 256 7 G 12 81° 12% - - 23° 81.1° 66.1° - - 865.0
6/27 8:20am 261 7 G 13 80° 12% - - 23° 80.7° 66.1° - - 864.0
6/27 8:10am 257 7 G 11 80° 12% - - 23° 79.8° 66.1° - - 864.0
6/27 8:00am 255 7 G 12 79° 12% - - 22° 79.3° 66.1° - - 864.0
6/27 7:50am 252 6 G 11 78° 13% - - 23° 78.7° 66.1° - - 864.0
6/27 7:40am 242 8 G 13 77° 13% - - 22° 77.6° 66.1° - - 864.0
6/27 7:30am 238 7 G 11 77° 12% - - 21° 77.2° 66.1° - - 863.0
6/27 7:20am 236 7 G 11 76° 13% - - 21° 76.4° 66.1° - - 863.0
6/27 7:10am 235 7 G 11 75° 13% - - 21° 75.7° 66.1° - - 863.0
6/27 7:00am 234 7 G 9 74° 13% - - 21° 74.9° 66.1° - - 863.0
6/27 6:50am 238 5 G 8 73° 14% - - 21° 74.6° 66.1° - - 863.0
6/27 6:40am 239 4 G 6 72° 15% - - 21° 74.6° 66.1° - - 863.0
6/27 6:30am 249 3 G 6 70° 16% - - 22° 74.6° 66.1° - - 863.0
6/27 6:20am 258 1 G 3 68° 17% - - 22° 74.6° 66.1° - - 863.0
6/27 6:10am 292 1 G 3 67° 17% - - 21° 74.6° 66.1° - - 863.0
6/27 6:00am 267 1 G 4 66° 17% - - 21° 74.6° 66.1° - - 863.0
6/27 5:50am 261 2 G 6 67° 16% - - 20° 74.6° 66.6° - - 862.0
6/27 5:40am 230 5 G 8 69° 15% - - 19° 74.6° 68° - - 862.0
6/27 5:30am 228 7 G 9 69° 14% - - 19° 74.6° 68.8° - - 862.0
6/27 5:20am 226 7 G 9 69° 15% - - 19° 74.6° 68.8° - - 862.0
6/27 5:10am 221 7 G 9 70° 14% - - 19° 74.6° 68.8° - - 862.0
6/27 5:00am 218 7 G 9 70° 14% - - 19° 74.6° 68.8° - - 862.0
6/27 4:50am 218 8 G 11 70° 14% - - 19° 74.6° 68.8° - - 862.0
6/27 4:40am 224 7 G 9 70° 14% - - 19° 74.6° 68.8° - - 862.0
6/27 4:30am 224 7 G 9 70° 14% - - 19° 74.6° 68.8° - - 862.0
6/27 4:20am 228 7 G 9 71° 14% - - 19° 74.6° 68.8° - - 862.0
6/27 4:10am 234 6 G 8 71° 14% - - 19° 74.6° 68.8° - - 862.0
6/27 4:00am 233 6 G 8 71° 13% - - 18° 74.6° 68.8° - - 862.0
6/27 3:50am 231 7 G 10 72° 13% - - 18° 74.6° 68.8° - - 862.0
6/27 3:40am 226 7 G 10 71° 13% - - 18° 74.6° 68.8° - - 862.0
6/27 3:30am 227 7 G 10 71° 13% - - 18° 74.6° 68.8° - - 862.0
6/27 3:20am 227 6 G 9 72° 13% - - 17° 74.6° 68.8° - - 862.0
6/27 3:10am 228 6 G 9 71° 13% - - 17° 74.6° 68.8° - - 862.0
6/27 3:00am 233 5 G 8 71° 12% - - 17° 74.6° 68.8° - - 862.0
6/27 2:50am 234 5 G 7 71° 12% - - 16° 74.6° 68.8° - - 862.0
6/27 2:40am 237 6 G 8 72° 12% - - 16° 74.6° 68.8° - - 862.0
6/27 2:30am 235 6 G 8 72° 11% - - 15° 74.6° 68.8° - - 862.0
6/27 2:20am 240 6 G 9 72° 11% - - 15° 74.6° 68.8° - - 862.0
6/27 2:10am 244 5 G 8 72° 11% - - 15° 74.6° 68.8° - - 862.0
6/27 2:00am 236 6 G 9 71° 11% - - 15° 74.6° 68.8° - - 862.0
6/27 1:50am 248 4 G 7 71° 12% - - 15° 74.6° 68.8° - - 862.0
6/27 1:40am 241 4 G 7 71° 12% - - 15° 74.6° 68.8° - - 862.0
6/27 1:30am 238 4 G 7 70° 12% - - 15° 74.6° 68.8° - - 862.0
6/27 1:20am 254 3 G 6 70° 13% - - 16° 74.6° 68.8° - - 862.0
6/27 1:10am 227 4 G 5 71° 12% - - 16° 74.6° 69.6° - - 862.0
6/27 1:00am 209 3 G 5 70° 12% - - 16° 74.6° 69.6° - - 862.0
6/27 12:50am 203 4 G 5 71° 12% - - 16° 74.6° 70.5° - - 862.0
6/27 12:40am 205 3 G 5 71° 12% - - 16° 74.6° 70.6° - - 862.0
6/27 12:30am 225 0 G 2 71° 12% - - 17° 74.6° 70.7° - - 862.0
6/27 12:20am 234 1 G 3 72° 12% - - 17° 74.6° 71.3° - - 862.0
6/27 12:10am 239 4 G 9 74° 11% - - 17° 74.6° 72.7° - - 862.0
6/27 12:00am 233 5 G 8 75° 11% - - 17° 96.9° 66.5° - - 862.0
6/26 11:50pm 227 6 G 9 75° 11% - - 17° 96.9° 66.5° - - 862.0
6/26 11:40pm 229 5 G 8 75° 11% - - 17° 96.9° 66.5° - - 863.0
6/26 11:30pm 226 5 G 10 76° 11% - - 17° 96.9° 66.5° - - 863.0
6/26 11:20pm 230 5 G 9 76° 11% - - 17° 96.9° 66.5° - - 863.0
6/26 11:10pm 224 4 G 7 76° 11% - - 17° 96.9° 66.5° - - 863.0
6/26 11:00pm 206 3 G 5 76° 11% - - 18° 96.9° 66.5° - - 863.0
6/26 10:50pm 185 3 G 4 76° 12% - - 19° 96.9° 66.5° - - 863.0
6/26 10:40pm 202 3 G 5 76° 12% - - 20° 96.9° 66.5° - - 863.0
6/26 10:30pm 218 4 G 5 76° 12% - - 20° 96.9° 66.5° - - 863.0
6/26 10:20pm 234 3 G 5 75° 14% - - 22° 96.9° 66.5° - - 864.0
6/26 10:10pm 266 1 G 4 75° 14% - - 23° 96.9° 66.5° - - 864.0
6/26 10:00pm 236 1 G 3 75° 15% - - 24° 96.9° 66.5° - - 864.0
6/26 9:50pm 232 4 G 6 76° 15% - - 24° 96.9° 66.5° - - 865.0
6/26 9:40pm 231 5 G 7 76° 15% - - 24° 96.9° 66.5° - - 865.0
6/26 9:30pm 227 5 G 8 76° 15% - - 25° 96.9° 66.5° - - 865.0
6/26 9:20pm 236 5 G 8 77° 14% - - 24° 96.9° 66.5° - - 865.0
6/26 9:10pm 232 5 G 7 77° 14% - - 24° 96.9° 66.5° - - 865.0
6/26 9:00pm 234 5 G 7 78° 14% - - 24° 96.9° 66.5° - - 865.0
6/26 8:50pm 238 5 G 7 79° 13% - - 24° 96.9° 66.5° - - 865.0
6/26 8:40pm 252 4 G 6 79° 13% - - 25° 96.9° 66.5° - - 865.0
6/26 8:30pm 258 3 G 6 80° 13% - - 25° 96.9° 66.5° - - 866.0
6/26 8:20pm 272 4 G 6 81° 13% - - 25° 96.9° 66.5° - - 866.0
6/26 8:10pm 273 4 G 8 82° 13% - - 26° 96.9° 66.5° - - 866.0
6/26 8:00pm 269 5 G 9 83° 12% - - 26° 96.9° 66.5° - - 866.0
6/26 7:50pm 272 6 G 15 85° 11% - - 24° 96.9° 66.5° - - 866.0
6/26 7:40pm 277 8 G 13 86° 10% - - 22° 96.9° 66.5° - - 866.0
6/26 7:30pm 282 7 G 14 87° 9% - - 22° 96.9° 66.5° - - 866.0
6/26 7:20pm 284 10 G 19 87° 9% - - 21° 96.9° 66.5° - - 866.0
6/26 7:10pm 277 10 G 20 88° 9% - - 22° 96.9° 66.5° - - 866.0
6/26 7:00pm 280 11 G 23 88° 9% - - 23° 96.9° 66.5° - - 867.0
6/26 6:50pm 275 10 G 21 89° 9% - - 23° 96.9° 66.5° - - 867.0
6/26 6:40pm 287 10 G 20 90° 9% - - 23° 96.9° 66.5° - - 867.0
6/26 6:30pm 280 9 G 18 90° 9% - - 24° 96.9° 66.5° - - 867.0
6/26 6:20pm 281 10 G 18 91° 9% - - 24° 96.9° 66.5° - - 867.0
6/26 6:10pm 288 10 G 20 91° 9% - - 24° 96.9° 66.5° - - 868.0
6/26 6:00pm 291 10 G 19 92° 9% - - 24° 96.9° 66.5° - - 868.0
6/26 5:50pm 290 11 G 21 92° 9% - - 25° 96.9° 66.5° - - 868.0
6/26 5:40pm 294 10 G 21 92° 8% - - 24° 96.9° 66.5° - - 868.0
6/26 5:30pm 285 11 G 21 93° 8% - - 24° 96.9° 66.5° - - 868.0
6/26 5:20pm 291 11 G 19 93° 9% - - 26° 96.9° 66.5° - - 869.0
6/26 5:10pm 282 10 G 19 93° 9% - - 27° 96.9° 66.5° - - 869.0
6/26 5:00pm 289 11 G 21 94° 10% - - 28° 96.9° 66.5° - - 869.0
6/26 4:50pm 282 10 G 20 94° 10% - - 29° 96.9° 66.5° - - 869.0
6/26 4:40pm 284 12 G 22 94° 10% - - 29° 96.9° 66.5° - - 869.0
6/26 4:30pm 289 12 G 22 95° 10% - - 29° 96.9° 66.5° - - 869.0
6/26 4:20pm 293 11 G 21 95° 10% - - 29° 96.9° 66.5° - - 870.0
6/26 4:10pm 282 10 G 25 95° 10% - - 29° 96.9° 66.5° - - 870.0
6/26 4:00pm 286 12 G 21 95° 10% - - 29° 96.9° 66.5° - - 870.0
6/26 3:50pm 274 10 G 21 95° 10% - - 30° 96.9° 66.5° - - 870.0
6/26 3:40pm 284 10 G 20 96° 10% - - 30° 96.9° 66.5° - - 870.0
6/26 3:30pm 293 11 G 19 96° 9% - - 29° 96.9° 66.5° - - 870.0
6/26 3:20pm 288 10 G 20 96° 10% - - 30° 96.9° 66.5° - - 870.0
6/26 3:10pm 282 10 G 18 96° 10% - - 30° 96.9° 66.5° - - 870.0
6/26 3:00pm 290 11 G 21 96° 9% - - 29° 96.9° 66.5° - - 870.0
6/26 2:50pm 290 10 G 20 96° 10% - - 30° 96.9° 66.5° - - 870.0
6/26 2:40pm 282 10 G 20 96° 10% - - 30° 96.9° 66.5° - - 870.0
6/26 2:30pm 284 12 G 22 96° 9% - - 29° 96.9° 66.5° - - 870.0
6/26 2:20pm 284 10 G 21 96° 9% - - 29° 96.9° 66.5° - - 870.0
6/26 2:10pm 294 10 G 19 96° 9% - - 28° 96.9° 66.5° - - 870.0
6/26 2:00pm 294 10 G 21 96° 9% - - 28° 96.9° 66.5° - - 870.0
6/26 1:50pm 302 11 G 21 96° 9% - - 27° 96.9° 66.5° - - 870.0
6/26 1:40pm 298 10 G 19 96° 9% - - 28° 96.9° 66.5° - - 870.0
6/26 1:30pm 294 9 G 20 96° 9% - - 27° 96.6° 66.5° - - 870.0
6/26 1:20pm 281 10 G 18 95° 9% - - 27° 96.6° 66.5° - - 870.0
6/26 1:10pm 262 11 G 23 95° 9% - - 27° 96.6° 66.5° - - 870.0
6/26 1:00pm 278 11 G 20 95° 9% - - 27° 96.6° 66.5° - - 870.0
6/26 12:50pm 298 9 G 18 96° 9% - - 27° 96.6° 66.5° - - 870.0
6/26 12:40pm 288 9 G 19 95° 9% - - 28° 96.1° 66.5° - - 870.0
6/26 12:30pm 311 9 G 19 95° 9% - - 27° 96.1° 66.5° - - 870.0
6/26 12:20pm 299 9 G 19 95° 9% - - 27° 96.1° 66.5° - - 870.0
6/26 12:10pm 276 10 G 18 95° 9% - - 27° 96.1° 66.5° - - 870.0
6/26 12:00pm 286 9 G 17 95° 9% - - 28° 96.1° 66.5° - - 870.0
6/26 11:50am 283 9 G 20 95° 9% - - 27° 96° 66.5° - - 869.0
6/26 11:40am 299 9 G 17 94° 9% - - 27° 96° 66.5° - - 869.0
6/26 11:30am 293 9 G 18 95° 9% - - 28° 96° 66.5° - - 869.0
6/26 11:20am 301 8 G 17 94° 9% - - 28° 94.7° 66.5° - - 869.0
6/26 11:10am 269 8 G 16 94° 9% - - 27° 94.5° 66.5° - - 869.0
6/26 11:00am 274 8 G 14 94° 9% - - 28° 94.5° 66.5° - - 869.0
6/26 10:50am 284 7 G 15 94° 10% - - 28° 94.4° 66.5° - - 869.0
6/26 10:40am 277 8 G 14 92° 10% - - 27° 93.7° 66.5° - - 868.0
6/26 10:30am 287 7 G 13 93° 10% - - 27° 93.7° 66.5° - - 868.0
6/26 10:20am 316 8 G 15 92° 10% - - 27° 93.7° 66.5° - - 868.0
6/26 10:10am 310 7 G 14 92° 10% - - 27° 93.7° 66.5° - - 868.0
6/26 10:00am 301 8 G 16 92° 9% - - 27° 93.7° 66.5° - - 868.0
6/26 9:50am 286 7 G 12 93° 9% - - 27° 93.7° 66.5° - - 868.0
6/26 9:40am 303 6 G 14 92° 9% - - 27° 92.8° 66.5° - - 868.0
6/26 9:30am 294 8 G 15 92° 10% - - 26° 92.6° 66.5° - - 868.0
6/26 9:20am 295 8 G 15 91° 10% - - 27° 91.8° 66.5° - - 868.0
6/26 9:10am 261 5 G 14 91° 11% - - 29° 91.6° 66.5° - - 868.0
6/26 9:00am 271 4 G 11 91° 11% - - 29° 91.6° 66.5° - - 868.0
6/26 8:50am 255 3 G 7 91° 11% - - 29° 91.5° 66.5° - - 868.0
6/26 8:40am 255 3 G 6 90° 11% - - 28° 91.4° 66.5° - - 867.0
6/26 8:30am 273 2 G 5 90° 11% - - 30° 91.4° 66.5° - - 867.0
6/26 8:20am 284 1 G 2 90° 12% - - 31° 91.3° 66.5° - - 867.0
6/26 8:10am 284 1 G 2 90° 14% - - 33° 90.2° 66.5° - - 867.0
6/26 8:00am 302 0 G 1 89° 18% - - 40° 90.1° 66.5° - - 869.0
6/26 7:50am 184 0 G 1 84° 25% - - 44° 86.3° 66.5° - - 870.0
6/26 7:40am 90 1 G 2 82° 29% - - 47° 84.8° 66.5° - - 871.0
6/26 7:30am 99 1 G 2 78° 30% - - 44° 84.8° 66.5° - - 871.0
6/26 7:20am 135 1 G 3 78° 29% - - 43° 84.8° 66.5° - - 870.0
6/26 7:10am 301 0 G 2 80° 25% - - 41° 84.8° 66.5° - - 869.0
6/26 7:00am 83 1 G 2 84° 20% - - 38° 84.8° 66.5° - - 868.0
6/26 6:50am 136 1 G 2 83° 16% - - 32° 84.2° 66.5° - - 866.0
6/26 6:40am 122 1 G 2 82° 14% - - 28° 83.1° 66.5° - - 865.0
6/26 6:30am 112 1 G 3 80° 14% - - 27° 80.8° 66.5° - - 865.0
6/26 6:20am 104 3 G 4 80° 14% - - 26° 80.5° 66.5° - - 864.0
6/26 6:10am 121 3 G 4 79° 14% - - 25° 80.5° 66.5° - - 864.0
6/26 6:00am 123 2 G 3 77° 15% - - 25° 79.3° 66.5° - - 864.0